Terminal Aerodrome Forecast
Issued by NWS North Platte, NE

Home | Current Version | Previous Version | Text Only | Print | Product List | Glossary On
Versions: 1 2 3 4 5 6 7 8 9 10 11 12
000
FTUS43 KLBF 062300
TAFVTN
TAF
KVTN 062320Z 0700/0724 28009KT P6SM SKC
     FM070300 27008KT P6SM SCT120
     FM071400 30007KT P6SM SKC=

USA.gov is the U.S. government's official web portal to all federal, state and local government web resources and services.